createdAt,value
2023-05-24T00:00:26.055Z,0.8
2023-05-24T00:01:35.724Z,1.3
2023-05-24T00:02:45.422Z,1.1
2023-05-24T00:03:55.186Z,1.4
2023-05-24T00:05:04.748Z,1.2
2023-05-24T00:06:14.351Z,1.1
2023-05-24T00:07:24.156Z,1.2
2023-05-24T00:08:33.800Z,1
2023-05-24T00:09:42.461Z,0.8
2023-05-24T00:10:51.107Z,1.1
2023-05-24T00:12:00.756Z,1
2023-05-24T00:13:09.396Z,1.4
2023-05-24T00:14:19.076Z,0.8
2023-05-24T00:15:26.818Z,1.1
2023-05-24T00:16:35.472Z,1.3
2023-05-24T00:17:46.213Z,2
2023-05-24T00:18:54.758Z,1.5
2023-05-24T00:20:06.566Z,1.2
2023-05-24T00:21:14.122Z,1.1
2023-05-24T00:22:21.786Z,1
2023-05-24T00:23:31.454Z,1.1
2023-05-24T00:24:40.109Z,0.8
2023-05-24T00:25:48.861Z,0.8
2023-05-24T00:26:58.532Z,1.1
2023-05-24T00:28:06.253Z,1
2023-05-24T00:29:14.892Z,1.1
2023-05-24T00:30:24.545Z,1
2023-05-24T00:31:34.061Z,1
2023-05-24T00:32:43.691Z,1.1
2023-05-24T00:33:52.372Z,1
2023-05-24T00:35:02.004Z,1
2023-05-24T00:36:11.670Z,1
2023-05-24T00:37:21.346Z,0.8
2023-05-24T00:38:31.183Z,0.6
2023-05-24T00:39:40.840Z,0.8
2023-05-24T00:40:48.497Z,0.9
2023-05-24T00:41:58.142Z,0.9
2023-05-24T00:43:06.815Z,1
2023-05-24T00:44:14.479Z,1
2023-05-24T00:45:24.151Z,0.7
2023-05-24T00:46:32.870Z,1
2023-05-24T00:47:41.465Z,1
2023-05-24T00:48:51.096Z,0.9
2023-05-24T00:49:57.763Z,0.8
2023-05-24T00:51:07.445Z,0.9
2023-05-24T00:52:17.091Z,0.6
2023-05-24T00:53:24.764Z,0.8
2023-05-24T00:54:34.448Z,0.9
2023-05-24T00:55:43.105Z,0.7
2023-05-24T00:56:52.768Z,1.2
2023-05-24T00:58:02.409Z,0.9
2023-05-24T00:59:10.084Z,0.6
2023-05-24T01:00:19.739Z,0.8
2023-05-24T01:01:28.391Z,0.8
2023-05-24T01:02:37.040Z,0.6
2023-05-24T01:03:46.841Z,0.6
2023-05-24T01:04:56.375Z,0.9
2023-05-24T01:06:12.059Z,0.7
2023-05-24T01:07:21.516Z,1.3
2023-05-24T01:08:30.192Z,0.6
2023-05-24T01:09:39.851Z,0.9
2023-05-24T01:10:49.516Z,1.2
2023-05-24T01:11:58.208Z,0.9
2023-05-24T01:13:07.865Z,1.1
2023-05-24T01:14:15.516Z,1.1
2023-05-24T01:15:24.198Z,0.9
2023-05-24T01:16:33.909Z,0.9
2023-05-24T01:17:41.501Z,0.9
2023-05-24T01:18:50.162Z,0.8
2023-05-24T01:19:59.948Z,1
2023-05-24T01:21:08.486Z,1
2023-05-24T01:22:18.158Z,0.8
2023-05-24T01:23:27.871Z,0.8
2023-05-24T01:24:36.449Z,0.8
2023-05-24T01:25:46.103Z,1
2023-05-24T01:26:54.749Z,1
2023-05-24T01:28:04.463Z,1.3
2023-05-24T01:29:13.090Z,1.1
2023-05-24T01:30:22.729Z,1.3
2023-05-24T01:31:31.411Z,1.1
2023-05-24T01:32:39.161Z,1.5
2023-05-24T01:33:48.750Z,1
2023-05-24T01:34:56.395Z,0.8
2023-05-24T01:36:06.083Z,1.2
2023-05-24T01:37:15.827Z,0.8
2023-05-24T01:38:23.494Z,1.1
2023-05-24T01:39:33.168Z,0.9
2023-05-24T01:40:42.089Z,1.3
2023-05-24T01:41:49.507Z,1.3
2023-05-24T01:42:59.128Z,1
2023-05-24T01:44:07.775Z,1.2
2023-05-24T01:45:17.456Z,1.5
2023-05-24T01:46:27.135Z,1.2
2023-05-24T01:47:36.779Z,1.1
2023-05-24T01:48:46.403Z,1.3
2023-05-24T01:49:55.052Z,1.2
2023-05-24T01:51:03.713Z,1.3
2023-05-24T01:52:13.440Z,0.9
2023-05-24T01:53:22.039Z,0.9
2023-05-24T01:54:30.717Z,1.4
2023-05-24T01:55:40.343Z,1.1
2023-05-24T01:56:48.993Z,1.1
2023-05-24T01:57:58.680Z,1.3
2023-05-24T01:59:08.324Z,1.1
2023-05-24T02:00:16.980Z,1.4
2023-05-24T02:01:26.646Z,1.9
2023-05-24T02:02:34.379Z,1.4
2023-05-24T02:03:42.977Z,1.2
2023-05-24T02:04:51.607Z,1.1
2023-05-24T02:06:01.265Z,1.2
2023-05-24T02:07:11.004Z,1
2023-05-24T02:08:20.677Z,1.1
2023-05-24T02:09:30.352Z,0.6
2023-05-24T02:10:40.019Z,1.3
2023-05-24T02:11:49.634Z,1.3
2023-05-24T02:12:58.287Z,1.6
2023-05-24T02:14:08.007Z,1
2023-05-24T02:15:15.656Z,1
2023-05-24T02:16:25.346Z,1
2023-05-24T02:17:34.031Z,1.3
2023-05-24T02:18:41.643Z,1
2023-05-24T02:19:51.320Z,1.2
2023-05-24T02:21:00.968Z,0.7
2023-05-24T02:22:10.621Z,0.9
2023-05-24T02:23:20.330Z,1.3
2023-05-24T02:24:28.018Z,1.1
2023-05-24T02:25:37.697Z,1.1
2023-05-24T02:26:47.373Z,1.5
2023-05-24T02:27:55.991Z,1.3
2023-05-24T02:29:05.702Z,1
2023-05-24T02:30:14.383Z,1.1
2023-05-24T02:31:23.154Z,1.2
2023-05-24T02:32:31.799Z,0.9
2023-05-24T02:33:41.414Z,1.1
2023-05-24T02:34:51.068Z,1.2
2023-05-24T02:35:59.796Z,1.2
2023-05-24T02:37:07.452Z,1.1
2023-05-24T02:38:17.148Z,1.2
2023-05-24T02:39:25.784Z,1.2
2023-05-24T02:40:35.441Z,1.1
2023-05-24T02:41:45.107Z,1.2
2023-05-24T02:42:52.752Z,1.3
2023-05-24T02:44:02.404Z,1.7
2023-05-24T02:45:12.048Z,2
2023-05-24T02:46:20.727Z,1.9
2023-05-24T02:47:30.365Z,1.5
2023-05-24T02:48:37.996Z,1.5
2023-05-24T02:49:46.675Z,1.6
2023-05-24T02:50:56.349Z,1.7
2023-05-24T02:52:04.008Z,1.3
2023-05-24T02:53:13.671Z,1.4
2023-05-24T02:54:22.312Z,1.6
2023-05-24T02:55:30.975Z,1.3
2023-05-24T02:56:40.669Z,1.2
2023-05-24T02:57:49.314Z,2
2023-05-24T02:58:57.972Z,1.6
2023-05-24T03:00:07.613Z,1.7
2023-05-24T03:01:14.312Z,1.4
2023-05-24T03:02:23.982Z,1.7
2023-05-24T03:03:31.644Z,1.7
2023-05-24T03:04:39.263Z,1.5
2023-05-24T03:05:48.951Z,1.6
2023-05-24T03:06:56.623Z,1.8
2023-05-24T03:08:05.331Z,1.8
2023-05-24T03:09:15.011Z,1.7
2023-05-24T03:10:24.659Z,1.6
2023-05-24T03:11:34.309Z,1.5
2023-05-24T03:12:42.944Z,1.6
2023-05-24T03:13:52.643Z,1.7
2023-05-24T03:15:02.303Z,1.3
2023-05-24T03:16:11.956Z,1.5
2023-05-24T03:17:21.572Z,1.6
2023-05-24T03:18:31.240Z,1.7
2023-05-24T03:19:38.878Z,1.5
2023-05-24T03:20:48.548Z,1.9
2023-05-24T03:21:57.228Z,1.5
2023-05-24T03:23:05.871Z,1.7
2023-05-24T03:24:15.521Z,1.5
2023-05-24T03:25:23.141Z,1.6
2023-05-24T03:26:32.792Z,1.6
2023-05-24T03:27:40.554Z,1.8
2023-05-24T03:28:50.216Z,1.7
2023-05-24T03:29:59.846Z,1.7
2023-05-24T03:31:07.536Z,1.5
2023-05-24T03:32:17.155Z,1.4
2023-05-24T03:33:25.853Z,1.9
2023-05-24T03:34:33.492Z,1.2
2023-05-24T03:35:43.132Z,1.4
2023-05-24T03:36:50.769Z,1.2
2023-05-24T03:37:59.432Z,1.1
2023-05-24T03:39:09.100Z,1.2
2023-05-24T03:40:17.757Z,1.4
2023-05-24T03:41:27.409Z,1
2023-05-24T03:42:37.090Z,1
2023-05-24T03:43:45.771Z,0.8
2023-05-24T03:44:55.453Z,0.9
2023-05-24T03:46:03.128Z,0.8
2023-05-24T03:47:11.751Z,0.9
2023-05-24T03:48:21.396Z,0.8
2023-05-24T03:49:30.039Z,1
2023-05-24T03:50:39.776Z,0.9
2023-05-24T03:51:49.385Z,0.7
2023-05-24T03:52:57.026Z,0.9
2023-05-24T03:54:06.671Z,1
2023-05-24T03:55:15.322Z,1
2023-05-24T03:56:24.015Z,0.7
2023-05-24T03:57:33.689Z,1.1
2023-05-24T03:58:42.324Z,0.9
2023-05-24T03:59:51.971Z,0.9
2023-05-24T04:01:00.629Z,1
2023-05-24T04:02:08.427Z,1
2023-05-24T04:03:18.105Z,0.9
2023-05-24T04:04:27.693Z,1
2023-05-24T04:05:36.352Z,1.2
2023-05-24T04:06:46.011Z,1
2023-05-24T04:07:54.734Z,0.9
2023-05-24T04:09:04.393Z,1
2023-05-24T04:10:13.046Z,0.9
2023-05-24T04:11:21.752Z,1.2
2023-05-24T04:12:30.431Z,0.9
2023-05-24T04:13:39.208Z,1.2
2023-05-24T04:14:47.867Z,1
2023-05-24T04:15:57.525Z,0.8
2023-05-24T04:17:06.448Z,1
2023-05-24T04:18:16.008Z,0.9
2023-05-24T04:19:24.935Z,0.7
2023-05-24T04:20:34.357Z,0.9
2023-05-24T04:21:43.995Z,1
2023-05-24T04:22:52.798Z,0.9
2023-05-24T04:24:02.469Z,0.7
2023-05-24T04:25:12.162Z,0.9
2023-05-24T04:26:19.816Z,0.8
2023-05-24T04:27:29.473Z,1.1
2023-05-24T04:28:38.174Z,1.3
2023-05-24T04:29:45.843Z,1.2
2023-05-24T04:30:55.520Z,1.7
2023-05-24T04:32:03.173Z,1.5
2023-05-24T04:33:12.965Z,1.7
2023-05-24T04:34:22.566Z,1.6
2023-05-24T04:35:30.217Z,1.4
2023-05-24T04:36:39.856Z,1.6
2023-05-24T04:37:48.525Z,1
2023-05-24T04:38:58.206Z,1.1
2023-05-24T04:40:07.996Z,1
2023-05-24T04:41:16.656Z,0.8
2023-05-24T04:42:25.314Z,1.1
2023-05-24T04:43:34.990Z,1
2023-05-24T04:44:42.608Z,1.3
2023-05-24T04:45:52.287Z,0.9
2023-05-24T04:47:01.014Z,0.9
2023-05-24T04:48:08.611Z,0.8
2023-05-24T04:49:18.317Z,0.8
2023-05-24T04:50:27.984Z,0.8
2023-05-24T04:51:37.674Z,0.8
2023-05-24T04:52:47.378Z,0.8
2023-05-24T04:53:57.061Z,0.9
2023-05-24T04:55:06.787Z,0.7
2023-05-24T04:56:15.434Z,0.9
2023-05-24T04:57:23.112Z,0.7
2023-05-24T04:58:32.772Z,0.9
2023-05-24T04:59:41.431Z,0.8
2023-05-24T05:00:50.122Z,0.6
2023-05-24T05:01:59.805Z,1
2023-05-24T05:03:07.551Z,1.5
2023-05-24T05:04:17.260Z,0.9
2023-05-24T05:05:26.873Z,0.9
2023-05-24T05:06:35.571Z,0.9
2023-05-24T05:07:45.562Z,0.8
2023-05-24T05:08:55.056Z,0.9
2023-05-24T05:10:03.737Z,0.9
2023-05-24T05:11:13.390Z,0.8
2023-05-24T05:12:21.043Z,1.1
2023-05-24T05:13:30.704Z,0.7
2023-05-24T05:14:40.356Z,1.1
2023-05-24T05:15:48.008Z,1
2023-05-24T05:16:57.818Z,1.2
2023-05-24T05:18:05.437Z,0.7
2023-05-24T05:19:15.048Z,1.1
2023-05-24T05:20:24.788Z,0.8
2023-05-24T05:21:33.584Z,1
2023-05-24T05:22:43.232Z,1.1
2023-05-24T05:23:51.909Z,0.7
2023-05-24T05:25:01.650Z,0.8
2023-05-24T05:26:10.294Z,0.7
2023-05-24T05:27:19.016Z,1
2023-05-24T05:28:28.677Z,1.1
2023-05-24T05:29:36.347Z,0.8
2023-05-24T05:30:46.015Z,0.9
2023-05-24T05:31:55.728Z,0.8
2023-05-24T05:33:04.514Z,1
2023-05-24T05:34:14.067Z,0.8
2023-05-24T05:35:23.757Z,0.8
2023-05-24T05:36:32.427Z,1.2
2023-05-24T05:37:42.122Z,1.1
2023-05-24T05:38:49.812Z,0.8
2023-05-24T05:39:58.482Z,0.7
2023-05-24T05:41:08.125Z,1
2023-05-24T05:42:17.247Z,0.8
2023-05-24T05:43:26.244Z,0.9
2023-05-24T05:44:34.946Z,1.1
2023-05-24T05:45:42.633Z,1.3
2023-05-24T05:46:52.307Z,1.1
2023-05-24T05:48:01.033Z,1.3
2023-05-24T05:49:09.665Z,1.2
2023-05-24T05:50:19.375Z,0.9
2023-05-24T05:51:27.105Z,1.2
2023-05-24T05:52:36.719Z,1.2
2023-05-24T05:53:45.378Z,1.1
2023-05-24T05:54:55.081Z,1
2023-05-24T05:56:04.741Z,1.2
2023-05-24T05:57:14.453Z,0.9
2023-05-24T05:58:24.082Z,1.1
2023-05-24T05:59:33.803Z,1.1
2023-05-24T06:00:41.557Z,0.9
2023-05-24T06:01:51.121Z,1.2
2023-05-24T06:03:00.848Z,0.9
2023-05-24T06:04:08.515Z,1.7
2023-05-24T06:05:18.126Z,1.9
2023-05-24T06:06:25.814Z,1.6
2023-05-24T06:07:33.457Z,1.8
2023-05-24T06:08:42.101Z,1.9
2023-05-24T06:09:51.758Z,2.2
2023-05-24T06:11:01.413Z,2
2023-05-24T06:12:11.115Z,2.1
2023-05-24T06:13:20.757Z,2.3
2023-05-24T06:14:30.420Z,1.9
2023-05-24T06:15:39.118Z,1.4
2023-05-24T06:16:47.907Z,1.5
2023-05-24T06:17:57.789Z,0.9
2023-05-24T06:19:07.381Z,1
2023-05-24T06:20:17.149Z,0.8
2023-05-24T06:21:25.752Z,1.1
2023-05-24T06:22:34.524Z,1.3
2023-05-24T06:23:44.225Z,1.2
2023-05-24T06:24:51.897Z,1.4
2023-05-24T06:26:01.657Z,1.6
2023-05-24T06:27:11.278Z,1.7
2023-05-24T06:28:21.009Z,1.3
2023-05-24T06:29:30.646Z,1.4
2023-05-24T06:30:40.387Z,1.6
2023-05-24T06:31:49.015Z,1.5
2023-05-24T06:32:59.610Z,1.7
2023-05-24T06:34:09.285Z,1.3
2023-05-24T06:35:17.960Z,1.4
2023-05-24T06:36:27.648Z,1.2
2023-05-24T06:37:35.349Z,1.3
2023-05-24T06:38:44.994Z,1.2
2023-05-24T06:39:53.685Z,1.1
2023-05-24T06:41:02.355Z,0.9
2023-05-24T06:42:11.996Z,1.5
2023-05-24T06:43:19.689Z,1.1
2023-05-24T06:44:29.352Z,1.3
2023-05-24T06:45:38.972Z,1.2
2023-05-24T06:46:47.672Z,1.2
2023-05-24T06:47:57.346Z,1.1
2023-05-24T06:49:07.072Z,1.2
2023-05-24T06:50:16.701Z,1.2
2023-05-24T06:51:25.472Z,1.1
2023-05-24T06:52:34.139Z,1.2
2023-05-24T06:53:42.769Z,0.7
2023-05-24T06:54:51.467Z,0.9
2023-05-24T06:56:01.154Z,1
2023-05-24T06:57:10.801Z,1
2023-05-24T06:58:18.489Z,1.2
2023-05-24T06:59:28.203Z,1
2023-05-24T07:00:38.280Z,0.6
2023-05-24T07:01:47.647Z,0.6
2023-05-24T07:02:57.310Z,0.9
2023-05-24T07:04:06.042Z,1
2023-05-24T07:05:15.685Z,0.8
2023-05-24T07:06:25.466Z,0.9
2023-05-24T07:07:34.195Z,1
2023-05-24T07:08:41.854Z,0.6
2023-05-24T07:09:51.556Z,1
2023-05-24T07:11:01.228Z,0.9
2023-05-24T07:12:09.998Z,0.8
2023-05-24T07:13:19.681Z,1
2023-05-24T07:14:28.347Z,0.9
2023-05-24T07:15:38.051Z,1
2023-05-24T07:16:47.766Z,0.9
2023-05-24T07:17:57.444Z,0.7
2023-05-24T07:19:07.128Z,1
2023-05-24T07:20:14.828Z,0.8
2023-05-24T07:21:24.499Z,0.8
2023-05-24T07:22:32.283Z,0.7
2023-05-24T07:23:40.964Z,0.8
2023-05-24T07:24:50.639Z,0.6
2023-05-24T07:25:59.296Z,0.9
2023-05-24T07:27:08.933Z,0.4
2023-05-24T07:28:18.641Z,0.9
2023-05-24T07:29:27.324Z,0.9
2023-05-24T07:30:36.995Z,0.8
2023-05-24T07:31:46.699Z,0.6
2023-05-24T07:32:56.451Z,0.4
2023-05-24T07:34:06.008Z,0.6
2023-05-24T07:35:13.699Z,0.8
2023-05-24T07:36:23.379Z,0.6
2023-05-24T07:37:32.044Z,0.7
2023-05-24T07:38:41.696Z,0.4
2023-05-24T07:39:51.410Z,0.7
2023-05-24T07:40:59.050Z,0.8
2023-05-24T07:42:08.704Z,0.9
2023-05-24T07:43:18.376Z,1
2023-05-24T07:44:28.159Z,1.4
2023-05-24T07:45:37.895Z,1.2
2023-05-24T07:46:46.748Z,1.1
2023-05-24T07:47:57.040Z,1
2023-05-24T07:49:06.130Z,1
2023-05-24T07:50:15.765Z,0.5
2023-05-24T07:51:25.510Z,0.6
2023-05-24T07:52:35.158Z,0.7
2023-05-24T07:53:42.786Z,0.5
2023-05-24T07:54:53.488Z,0.9
2023-05-24T07:56:02.183Z,0.7
2023-05-24T07:57:10.866Z,0.8
2023-05-24T07:58:20.570Z,0.8
2023-05-24T07:59:30.270Z,0.8
2023-05-24T08:00:37.934Z,1.2
2023-05-24T08:01:47.609Z,1
2023-05-24T08:02:56.390Z,0.5
2023-05-24T08:04:06.049Z,0.6
2023-05-24T08:05:14.775Z,0.7
2023-05-24T08:06:24.356Z,0.8
2023-05-24T08:07:35.021Z,0.9
2023-05-24T08:08:42.770Z,0.9
2023-05-24T08:09:51.421Z,1.2
2023-05-24T08:11:01.121Z,1
2023-05-24T08:12:09.767Z,0.9
2023-05-24T08:13:19.409Z,0.6
2023-05-24T08:14:28.161Z,0.7
2023-05-24T08:15:35.873Z,0.8
2023-05-24T08:16:45.563Z,0.9
2023-05-24T08:17:55.263Z,0.6
2023-05-24T08:19:04.923Z,0.8
2023-05-24T08:20:14.620Z,0.8
2023-05-24T08:21:22.403Z,1
2023-05-24T08:22:32.022Z,0.9
2023-05-24T08:23:40.684Z,0.9
2023-05-24T08:24:48.382Z,0.7
2023-05-24T08:25:58.055Z,0.8
2023-05-24T08:27:06.243Z,1.1
2023-05-24T08:28:14.923Z,0.7
2023-05-24T08:29:24.589Z,0.5
2023-05-24T08:30:34.338Z,0.5
2023-05-24T08:31:44.130Z,0.7
2023-05-24T08:32:52.820Z,0.5
2023-05-24T08:34:01.467Z,0.3
2023-05-24T08:35:20.689Z,0.6
2023-05-24T08:36:19.768Z,0.6
2023-05-24T08:37:29.486Z,0.6
2023-05-24T08:38:39.166Z,0.9
2023-05-24T08:39:47.874Z,0.4
2023-05-24T08:40:57.536Z,0.5
2023-05-24T08:42:09.148Z,0.5
2023-05-24T08:43:15.861Z,0.7
2023-05-24T08:44:25.516Z,0.5
2023-05-24T08:45:34.251Z,0.8
2023-05-24T08:46:42.912Z,0.7
2023-05-24T08:47:52.736Z,0.9
2023-05-24T08:49:01.372Z,0.4
2023-05-24T08:50:11.193Z,0.7
2023-05-24T08:51:19.899Z,0.6
2023-05-24T08:52:28.363Z,1
2023-05-24T08:53:38.122Z,0.8
2023-05-24T08:54:47.755Z,0.8
2023-05-24T08:55:56.421Z,0.5
2023-05-24T08:57:06.188Z,0.4
2023-05-24T08:58:14.862Z,0.8
2023-05-24T08:59:24.554Z,0.4
2023-05-24T09:00:34.314Z,0.9
2023-05-24T09:01:42.148Z,1.2
2023-05-24T09:02:51.654Z,0.7
2023-05-24T09:03:59.348Z,0.7
2023-05-24T09:05:08.988Z,1.1
2023-05-24T09:06:18.691Z,0.7
2023-05-24T09:07:27.347Z,0.6
2023-05-24T09:08:37.045Z,1
2023-05-24T09:09:45.755Z,0.8
2023-05-24T09:10:56.023Z,0.6
2023-05-24T09:12:05.038Z,0.7
2023-05-24T09:13:13.691Z,0.8
2023-05-24T09:14:23.447Z,0.8
2023-05-24T09:15:33.080Z,0.4
2023-05-24T09:16:41.864Z,0.7
2023-05-24T09:17:51.477Z,0.7
2023-05-24T09:19:01.078Z,0.7
2023-05-24T09:20:11.173Z,0.8
2023-05-24T09:21:20.425Z,0.5
2023-05-24T09:22:29.080Z,1
2023-05-24T09:23:38.755Z,0.6
2023-05-24T09:24:46.458Z,0.7
2023-05-24T09:25:57.164Z,0.4
2023-05-24T09:27:06.801Z,0.6
2023-05-24T09:28:15.451Z,0.7
2023-05-24T09:29:26.276Z,0.8
2023-05-24T09:30:34.933Z,0.5
2023-05-24T09:31:43.726Z,0.7
2023-05-24T09:32:53.416Z,0.7
2023-05-24T09:34:01.118Z,0.6
2023-05-24T09:35:09.978Z,0.6
2023-05-24T09:36:19.469Z,0.9
2023-05-24T09:37:32.068Z,0.8
2023-05-24T09:38:39.800Z,1
2023-05-24T09:39:48.473Z,0.6
2023-05-24T09:40:57.160Z,0.7
2023-05-24T09:42:06.884Z,0.9
2023-05-24T09:43:16.550Z,0.9
2023-05-24T09:44:25.208Z,1.1
2023-05-24T09:45:34.869Z,0.7
2023-05-24T09:46:43.529Z,0.8
2023-05-24T09:47:53.369Z,0.5
2023-05-24T09:49:01.898Z,0.8
2023-05-24T09:50:10.571Z,1.2
2023-05-24T09:51:20.248Z,1.1
2023-05-24T09:52:29.947Z,0.9
2023-05-24T09:53:38.619Z,1.1
2023-05-24T09:54:48.318Z,1.2
2023-05-24T09:55:55.976Z,1.1
2023-05-24T09:57:05.631Z,0.9
2023-05-24T09:58:14.384Z,0.7
2023-05-24T09:59:23.987Z,0.8
2023-05-24T10:00:33.721Z,1.1
2023-05-24T10:01:41.409Z,1.3
2023-05-24T10:02:53.689Z,0.8
2023-05-24T10:04:01.986Z,1.1
2023-05-24T10:05:10.489Z,0.7
2023-05-24T10:06:20.243Z,1.2
2023-05-24T10:07:29.903Z,0.9
2023-05-24T10:08:39.562Z,1
2023-05-24T10:09:49.290Z,1.3
2023-05-24T10:10:57.966Z,0.8
2023-05-24T10:12:06.758Z,0.9
2023-05-24T10:13:16.468Z,1
2023-05-24T10:14:26.083Z,1
2023-05-24T10:15:35.883Z,1.1
2023-05-24T10:16:44.557Z,1.1
2023-05-24T10:17:52.204Z,0.8
2023-05-24T10:19:01.875Z,1.1
2023-05-24T10:20:11.617Z,1.1
2023-05-24T10:21:20.299Z,0.9
2023-05-24T10:22:29.936Z,1
2023-05-24T10:23:38.673Z,1
2023-05-24T10:24:48.388Z,0.8
2023-05-24T10:25:57.046Z,1.3
2023-05-24T10:27:05.695Z,1.3
2023-05-24T10:28:15.365Z,0.6
2023-05-24T10:29:25.226Z,0.9
2023-05-24T10:30:34.899Z,1.3
2023-05-24T10:31:44.653Z,1.8
2023-05-24T10:32:52.257Z,2.3
2023-05-24T10:34:07.520Z,1.6
2023-05-24T10:35:12.722Z,1.4
2023-05-24T10:36:21.273Z,1.3
2023-05-24T10:37:30.928Z,0.8
2023-05-24T10:38:38.585Z,1.1
2023-05-24T10:39:47.262Z,1
2023-05-24T10:40:56.968Z,1.2
2023-05-24T10:42:08.854Z,1.1
2023-05-24T10:43:17.288Z,1.4
2023-05-24T10:44:26.972Z,1.2
2023-05-24T10:45:35.898Z,1.5
2023-05-24T10:46:45.359Z,1.5
2023-05-24T10:47:55.038Z,1.3
2023-05-24T10:49:03.644Z,1.1
2023-05-24T10:50:13.348Z,1.1
2023-05-24T10:51:21.017Z,1.4
2023-05-24T10:52:30.679Z,1.1
2023-05-24T10:53:40.436Z,1.1
2023-05-24T10:55:03.023Z,1.2
2023-05-24T10:56:00.762Z,1.2
2023-05-24T10:57:09.463Z,1.1
2023-05-24T10:58:19.170Z,1.6
2023-05-24T10:59:29.169Z,1.8
2023-05-24T11:00:38.929Z,1.8
2023-05-24T11:01:47.655Z,1.5
2023-05-24T11:02:57.304Z,1.5
2023-05-24T11:04:04.916Z,1.7
2023-05-24T11:05:14.645Z,1.7
2023-05-24T11:06:23.268Z,1.3
2023-05-24T11:07:32.042Z,1.5
2023-05-24T11:08:41.698Z,1.4
2023-05-24T11:09:51.369Z,1.3
2023-05-24T11:11:08.745Z,1.2
2023-05-24T11:12:10.831Z,1
2023-05-24T11:13:18.734Z,1.2
2023-05-24T11:14:28.502Z,1.2
2023-05-24T11:15:36.355Z,1.7
2023-05-24T11:16:45.309Z,1.4
2023-05-24T11:17:54.811Z,1.2
2023-05-24T11:19:03.603Z,1.3
2023-05-24T11:20:13.323Z,1.1
2023-05-24T11:21:21.042Z,1.1
2023-05-24T11:22:30.727Z,1.3
2023-05-24T11:23:40.366Z,1.2
2023-05-24T11:24:50.181Z,1.4
2023-05-24T11:25:59.816Z,0.9
2023-05-24T11:27:08.510Z,1.1
2023-05-24T11:28:17.290Z,1.2
2023-05-24T11:29:26.922Z,1.4
2023-05-24T11:30:36.629Z,1.3
2023-05-24T11:31:46.321Z,1.4
2023-05-24T11:32:54.989Z,1.4
2023-05-24T11:34:03.656Z,1.1
2023-05-24T11:35:13.332Z,1.3
2023-05-24T11:36:21.058Z,1.4
2023-05-24T11:37:38.802Z,1.3
2023-05-24T11:38:41.378Z,1.2
2023-05-24T11:39:50.122Z,1.4
2023-05-24T11:41:00.807Z,1.3
2023-05-24T11:42:10.697Z,1.6
2023-05-24T11:43:18.375Z,1.4
2023-05-24T11:44:28.043Z,1.7
2023-05-24T11:45:36.755Z,1.7
2023-05-24T11:46:45.457Z,1.2
2023-05-24T11:47:54.194Z,1.5
2023-05-24T11:49:02.859Z,1.2
2023-05-24T11:50:12.505Z,1.1
2023-05-24T11:51:22.243Z,1.3
2023-05-24T11:52:29.952Z,1
2023-05-24T11:53:39.798Z,1.7
2023-05-24T11:54:47.541Z,2.6
2023-05-24T11:55:56.217Z,1.6
2023-05-24T11:57:05.921Z,1.2
2023-05-24T11:58:14.622Z,1.2
2023-05-24T11:59:23.340Z,0.8
2023-05-24T12:00:33.010Z,1.7
2023-05-24T12:01:40.750Z,1.7
2023-05-24T12:02:51.736Z,1.1
2023-05-24T12:04:01.100Z,1.1
2023-05-24T12:05:09.849Z,1.4
2023-05-24T12:06:19.358Z,1.5
2023-05-24T12:07:29.037Z,1.8
2023-05-24T12:08:38.806Z,1.4
2023-05-24T12:09:47.542Z,1.8
2023-05-24T12:10:57.248Z,1.2
2023-05-24T12:12:06.990Z,1.4
2023-05-24T12:13:15.657Z,2
2023-05-24T12:14:24.340Z,1.2
2023-05-24T12:15:34.082Z,1.7
2023-05-24T12:16:41.724Z,1.6
2023-05-24T12:17:51.501Z,1.2
2023-05-24T12:19:05.610Z,1
2023-05-24T12:20:10.818Z,1.1
2023-05-24T12:21:20.506Z,1.2
2023-05-24T12:22:28.130Z,1.2
2023-05-24T12:23:37.887Z,1.2
2023-05-24T12:24:47.558Z,1.3
2023-05-24T12:25:56.205Z,1.1
2023-05-24T12:27:05.969Z,1.2
2023-05-24T12:28:14.642Z,1.3
2023-05-24T12:29:22.339Z,1.5
2023-05-24T12:30:32.060Z,1.2
2023-05-24T12:31:40.778Z,1.1
2023-05-24T12:32:50.509Z,1.2
2023-05-24T12:34:00.155Z,1.1
2023-05-24T12:35:08.812Z,1.2
2023-05-24T12:36:18.736Z,1.4
2023-05-24T12:37:28.363Z,1.6
2023-05-24T12:38:37.037Z,1.2
2023-05-24T12:39:46.710Z,1.5
2023-05-24T12:41:11.125Z,1
2023-05-24T12:42:06.078Z,1.2
2023-05-24T12:43:15.705Z,1.1
2023-05-24T12:44:25.440Z,1.6
2023-05-24T12:45:35.234Z,1.5
2023-05-24T12:46:44.925Z,1.4
2023-05-24T12:47:54.611Z,1.2
2023-05-24T12:49:04.281Z,1
2023-05-24T12:50:12.252Z,0.9
2023-05-24T12:51:21.942Z,0.9
2023-05-24T12:52:31.597Z,1
2023-05-24T12:53:40.256Z,1.3
2023-05-24T12:54:49.933Z,0.9
2023-05-24T12:55:58.706Z,0.7
2023-05-24T12:57:08.418Z,0.8
2023-05-24T12:58:18.079Z,0.9
2023-05-24T12:59:27.761Z,1
2023-05-24T13:00:36.416Z,1.1
2023-05-24T13:01:46.215Z,0.8
2023-05-24T13:02:54.881Z,1
2023-05-24T13:04:04.679Z,1.1
2023-05-24T13:05:13.394Z,1.2
2023-05-24T13:06:21.056Z,0.8
2023-05-24T13:07:30.875Z,1.3
2023-05-24T13:08:40.844Z,1.1
2023-05-24T13:09:48.780Z,1.1
2023-05-24T13:10:58.449Z,0.9
2023-05-24T13:12:07.115Z,1
2023-05-24T13:13:16.813Z,1.3
2023-05-24T13:14:25.552Z,1.2
2023-05-24T13:15:35.254Z,1.1
2023-05-24T13:16:44.953Z,0.7
2023-05-24T13:17:53.654Z,0.9
2023-05-24T13:19:03.230Z,1
2023-05-24T13:20:10.907Z,0.7
2023-05-24T13:21:19.622Z,0.9
2023-05-24T13:22:29.262Z,0.8
2023-05-24T13:23:37.919Z,1.2
2023-05-24T13:24:47.624Z,0.9
2023-05-24T13:25:57.249Z,0.7
2023-05-24T13:27:06.980Z,1.3
2023-05-24T13:28:16.712Z,1.6
2023-05-24T13:30:36.165Z,1.3
2023-05-24T13:31:45.878Z,1.1
2023-05-24T13:32:53.506Z,0.9
2023-05-24T13:34:03.131Z,1
2023-05-24T13:35:12.880Z,0.9
2023-05-24T13:36:22.557Z,1.4
2023-05-24T13:37:32.246Z,1.3
2023-05-24T13:38:39.910Z,0.9
2023-05-24T13:39:49.617Z,1.3
2023-05-24T13:40:59.408Z,1.2
2023-05-24T13:42:08.976Z,1
2023-05-24T13:43:18.675Z,1
2023-05-24T13:44:27.351Z,1
2023-05-24T13:45:35.999Z,1.3
2023-05-24T13:46:45.691Z,1.1
2023-05-24T13:47:54.385Z,1.2
2023-05-24T13:49:03.043Z,1
2023-05-24T13:50:12.784Z,1.5
2023-05-24T13:51:21.422Z,0.8
2023-05-24T13:52:31.078Z,1.2
2023-05-24T13:53:39.731Z,1.2
2023-05-24T13:54:48.444Z,0.7
2023-05-24T13:55:58.093Z,1.1
2023-05-24T13:57:05.817Z,0.9
2023-05-24T13:58:15.440Z,0.9
2023-05-24T13:59:25.137Z,1.1
2023-05-24T14:00:33.916Z,1.2
2023-05-24T14:01:43.703Z,1.2
2023-05-24T14:02:53.488Z,0.8
2023-05-24T14:04:01.003Z,1.5
2023-05-24T14:05:25.493Z,1
2023-05-24T14:06:21.392Z,1
2023-05-24T14:07:30.152Z,1
2023-05-24T14:08:39.764Z,1.1
2023-05-24T14:09:49.438Z,1.4
2023-05-24T14:10:59.160Z,1
2023-05-24T14:12:07.930Z,1.7
2023-05-24T14:13:43.042Z,1.3
2023-05-24T14:15:37.874Z,1.1
2023-05-24T14:16:47.642Z,1.1
2023-05-24T14:17:57.314Z,1.3
2023-05-24T14:19:05.941Z,1.2
2023-05-24T14:20:15.616Z,0.9
2023-05-24T14:21:24.372Z,0.9
2023-05-24T14:22:32.233Z,1.1
2023-05-24T14:23:41.848Z,1
2023-05-24T14:24:51.274Z,1.4
2023-05-24T14:25:59.951Z,1.3
2023-05-24T14:27:09.642Z,1.3
2023-05-24T14:28:17.377Z,1.4
2023-05-24T14:29:27.040Z,1.2
2023-05-24T14:30:36.748Z,1
2023-05-24T14:31:44.426Z,0.8
2023-05-24T14:32:54.073Z,0.9
2023-05-24T14:34:01.754Z,1.1
2023-05-24T14:35:10.409Z,1
2023-05-24T14:36:20.094Z,1.3
2023-05-24T14:37:28.753Z,1.1
2023-05-24T14:38:38.412Z,1
2023-05-24T14:39:47.113Z,1
2023-05-24T14:40:55.758Z,1
2023-05-24T14:42:04.440Z,1
2023-05-24T14:43:14.133Z,1.3
2023-05-24T14:44:23.777Z,1
2023-05-24T14:45:33.513Z,1.3
2023-05-24T14:46:44.179Z,1.2
2023-05-24T14:47:53.840Z,1
2023-05-24T14:49:01.518Z,1.2
2023-05-24T14:50:09.164Z,0.8
2023-05-24T14:51:18.921Z,0.9
2023-05-24T14:52:28.925Z,1
2023-05-24T14:53:38.653Z,1.1
2023-05-24T14:54:48.307Z,1
2023-05-24T14:55:55.961Z,1.1
2023-05-24T14:57:05.703Z,1.2
2023-05-24T14:58:14.573Z,1
2023-05-24T14:59:24.090Z,1.1
2023-05-24T15:00:33.722Z,1.1
2023-05-24T15:01:42.421Z,1.2
2023-05-24T15:02:51.290Z,0.8
2023-05-24T15:03:59.933Z,1.6
2023-05-24T15:05:08.605Z,0.9
2023-05-24T15:06:18.282Z,1
2023-05-24T15:07:26.951Z,0.9
2023-05-24T15:08:34.632Z,1.2
2023-05-24T15:09:44.327Z,0.7
2023-05-24T15:10:52.012Z,0.7
2023-05-24T15:12:00.664Z,1
2023-05-24T15:13:10.435Z,0.9
2023-05-24T15:14:17.105Z,0.9
2023-05-24T15:15:26.778Z,0.9
2023-05-24T15:16:36.760Z,1
2023-05-24T15:17:45.367Z,1.2
2023-05-24T15:18:55.180Z,0.7
2023-05-24T15:20:03.878Z,0.8
2023-05-24T15:21:13.556Z,0.7
2023-05-24T15:22:22.235Z,0.6
2023-05-24T15:23:30.893Z,0.8
2023-05-24T15:24:40.856Z,0.7
2023-05-24T15:25:50.550Z,0.7
2023-05-24T15:27:00.197Z,0.8
2023-05-24T15:28:08.853Z,0.9
2023-05-24T15:29:16.522Z,0.9
2023-05-24T15:30:26.178Z,0.7
2023-05-24T15:31:33.971Z,0.6
2023-05-24T15:32:43.588Z,0.8
2023-05-24T15:33:53.275Z,0.5
2023-05-24T15:35:02.916Z,0.8
2023-05-24T15:36:12.610Z,0.5
2023-05-24T15:37:22.373Z,0.8
2023-05-24T15:38:32.054Z,0.9
2023-05-24T15:39:41.707Z,0.5
2023-05-24T15:40:50.361Z,0.8
2023-05-24T15:42:00.010Z,0.5
2023-05-24T15:43:09.697Z,0.5
2023-05-24T15:44:18.392Z,0.6
2023-05-24T15:45:28.289Z,0.7
2023-05-24T15:46:38.034Z,0.5
2023-05-24T15:47:46.664Z,0.6
2023-05-24T15:48:56.298Z,0.4
2023-05-24T15:50:05.952Z,0.4
2023-05-24T15:52:25.309Z,0.4
2023-05-24T15:53:32.946Z,0.1
2023-05-24T15:54:42.592Z,0.4
2023-05-24T15:55:51.354Z,0.6
2023-05-24T15:57:00.036Z,0.5
2023-05-24T15:58:09.721Z,0.5
2023-05-24T15:59:18.116Z,0.4
2023-05-24T16:00:26.252Z,0.4
2023-05-24T16:01:36.091Z,0.5
2023-05-24T16:02:44.742Z,0.5
2023-05-24T16:03:54.411Z,0.6